createdAt,value
2022-12-24T00:00:40.216Z,1.40
2022-12-24T00:04:42.334Z,1.50
2022-12-24T00:08:44.346Z,1.33
2022-12-24T00:12:46.324Z,1.42
2022-12-24T00:16:48.380Z,1.42
2022-12-24T00:20:50.866Z,1.63
2022-12-24T00:24:52.932Z,1.70
2022-12-24T00:28:55.052Z,1.80
2022-12-24T00:32:57.144Z,1.40
2022-12-24T00:36:59.190Z,1.23
2022-12-24T00:41:03.815Z,1.48
2022-12-24T00:45:06.309Z,1.60
2022-12-24T00:49:10.955Z,1.50
2022-12-24T00:53:12.956Z,1.50
2022-12-24T00:57:14.983Z,2.22
2022-12-24T01:01:17.852Z,1.60
2022-12-24T01:05:20.963Z,1.35
2022-12-24T01:09:23.109Z,1.90
2022-12-24T01:13:25.643Z,1.50
2022-12-24T01:17:27.676Z,1.88
2022-12-24T01:21:29.704Z,1.33
2022-12-24T01:25:31.714Z,1.08
2022-12-24T01:29:33.831Z,1.27
2022-12-24T01:33:35.791Z,1.70
2022-12-24T01:37:38.151Z,1.33
2022-12-24T01:41:58.707Z,1.65
2022-12-24T01:46:26.437Z,1.83
2022-12-24T01:50:28.940Z,1.67
2022-12-24T01:54:36.333Z,1.40
2022-12-24T01:58:43.110Z,1.88
2022-12-24T02:02:47.948Z,1.40
2022-12-24T02:06:50.057Z,1.75
2022-12-24T02:10:52.214Z,1.50
2022-12-24T02:14:54.908Z,1.50
2022-12-24T02:19:28.012Z,1.58
2022-12-24T02:23:40.122Z,1.75
2022-12-24T02:28:12.773Z,1.52
2022-12-24T02:32:23.416Z,1.83
2022-12-24T02:36:32.551Z,1.48
2022-12-24T02:40:42.734Z,2.03
2022-12-24T02:44:52.864Z,1.40
2022-12-24T02:48:56.567Z,1.70
2022-12-24T02:52:58.582Z,1.58
2022-12-24T02:57:08.346Z,2.25
2022-12-24T03:01:44.620Z,1.80
2022-12-24T03:05:51.541Z,1.67
2022-12-24T03:10:11.198Z,1.65
2022-12-24T03:14:14.989Z,1.92
2022-12-24T03:18:21.268Z,1.73
2022-12-24T03:22:26.381Z,1.65
2022-12-24T03:26:30.615Z,1.70
2022-12-24T03:30:33.295Z,1.90
2022-12-24T03:34:35.338Z,1.60
2022-12-24T03:38:37.739Z,1.77
2022-12-24T03:42:40.054Z,1.80
2022-12-24T03:46:42.140Z,1.95
2022-12-24T03:50:44.181Z,1.45
2022-12-24T03:54:46.180Z,2.05
2022-12-24T03:58:48.662Z,1.55
2022-12-24T04:02:50.927Z,1.90
2022-12-24T04:06:53.077Z,1.33
2022-12-24T04:10:55.274Z,1.67
2022-12-24T04:14:57.253Z,1.50
2022-12-24T04:18:59.225Z,1.85
2022-12-24T04:23:01.209Z,1.02
2022-12-24T04:27:03.420Z,1.80
2022-12-24T04:31:11.195Z,1.48
2022-12-24T04:35:13.244Z,1.40
2022-12-24T04:39:15.222Z,1.98
2022-12-24T04:43:17.268Z,1.75
2022-12-24T04:47:19.263Z,1.63
2022-12-24T04:51:21.792Z,1.30
2022-12-24T04:55:23.796Z,1.27
2022-12-24T04:59:25.840Z,1.90
2022-12-24T05:03:27.981Z,2.72
2022-12-24T05:07:30.037Z,2.35
2022-12-24T05:11:32.122Z,1.90
2022-12-24T05:15:34.178Z,2.00
2022-12-24T05:19:36.242Z,2.17
2022-12-24T05:23:57.129Z,1.38
2022-12-24T05:27:59.149Z,1.52
2022-12-24T05:32:01.144Z,1.67
2022-12-24T05:36:03.533Z,1.80
2022-12-24T05:40:06.314Z,2.42
2022-12-24T05:44:08.350Z,2.10
2022-12-24T05:48:10.359Z,1.90
2022-12-24T05:52:12.468Z,2.10
2022-12-24T05:56:18.033Z,1.30
2022-12-24T06:00:20.759Z,2.45
2022-12-24T06:04:28.479Z,2.17
2022-12-24T06:08:32.142Z,2.00
2022-12-24T06:12:34.246Z,3.10
2022-12-24T06:16:36.339Z,2.00
2022-12-24T06:20:38.400Z,2.30
2022-12-24T06:24:40.452Z,1.98
2022-12-24T06:28:43.843Z,2.45
2022-12-24T06:32:45.852Z,1.63
2022-12-24T06:36:47.950Z,2.25
2022-12-24T06:40:50.063Z,1.60
2022-12-24T06:44:52.215Z,1.80
2022-12-24T06:48:55.022Z,1.73
2022-12-24T06:52:57.070Z,1.70
2022-12-24T06:56:59.094Z,1.70
2022-12-24T07:01:02.801Z,1.75
2022-12-24T07:05:05.234Z,1.70
2022-12-24T07:09:07.502Z,2.20
2022-12-24T07:13:09.505Z,2.67
2022-12-24T07:17:11.592Z,2.53
2022-12-24T07:21:13.776Z,2.78
2022-12-24T07:25:15.985Z,2.30
2022-12-24T07:29:17.969Z,3.08
2022-12-24T07:33:20.012Z,1.90
2022-12-24T07:37:22.048Z,2.55
2022-12-24T07:41:24.071Z,2.13
2022-12-24T07:45:26.153Z,2.03
2022-12-24T07:49:28.229Z,2.95
2022-12-24T07:53:31.645Z,5.45
2022-12-24T07:57:33.699Z,6.75
2022-12-24T08:01:35.834Z,7.85
2022-12-24T08:05:38.009Z,6.95
2022-12-24T08:09:40.042Z,7.53
2022-12-24T08:13:42.040Z,2.75
2022-12-24T08:17:44.853Z,2.20
2022-12-24T08:21:46.951Z,2.10
2022-12-24T08:25:49.293Z,2.22
2022-12-24T08:29:51.321Z,2.10
2022-12-24T08:33:53.338Z,2.08
2022-12-24T08:37:55.415Z,2.70
2022-12-24T08:41:57.803Z,2.20
2022-12-24T08:46:05.213Z,2.72
2022-12-24T08:50:08.005Z,2.58
2022-12-24T08:54:09.980Z,2.50
2022-12-24T08:58:12.045Z,2.28
2022-12-24T09:02:14.339Z,1.90
2022-12-24T09:06:16.527Z,2.25
2022-12-24T09:10:18.632Z,1.42
2022-12-24T09:14:20.626Z,2.47
2022-12-24T09:18:22.687Z,2.10
2022-12-24T09:22:24.767Z,2.65
2022-12-24T09:26:27.471Z,1.50
2022-12-24T09:30:29.512Z,1.55
2022-12-24T09:34:31.607Z,1.70
2022-12-24T09:38:34.286Z,1.30
2022-12-24T09:42:54.603Z,1.60
2022-12-24T09:47:04.158Z,1.88
2022-12-24T09:51:12.452Z,1.73
2022-12-24T09:55:28.324Z,1.77
2022-12-24T09:59:43.685Z,1.63
2022-12-24T10:03:46.579Z,1.60
2022-12-24T10:08:06.892Z,1.58
2022-12-24T10:12:36.138Z,1.55
2022-12-24T10:16:53.807Z,1.40
2022-12-24T10:25:17.665Z,1.70
2022-12-24T10:29:42.593Z,1.60
2022-12-24T10:33:49.174Z,1.85
2022-12-24T10:37:52.691Z,1.60
2022-12-24T10:42:00.040Z,1.70
2022-12-24T10:50:07.246Z,2.40
2022-12-24T10:54:27.046Z,2.10
2022-12-24T10:58:30.612Z,1.52
2022-12-24T11:02:37.327Z,1.52
2022-12-24T11:07:02.047Z,1.40
2022-12-24T11:11:07.734Z,2.00
2022-12-24T11:15:31.296Z,1.83
2022-12-24T11:19:41.152Z,2.10
2022-12-24T11:23:50.337Z,1.52
2022-12-24T11:27:52.518Z,1.65
2022-12-24T11:32:18.299Z,1.65
2022-12-24T11:36:23.519Z,1.35
2022-12-24T11:40:28.594Z,1.65
2022-12-24T11:44:30.885Z,1.70
2022-12-24T11:48:34.923Z,1.60
2022-12-24T11:52:37.574Z,1.30
2022-12-24T11:56:49.852Z,1.45
2022-12-24T12:00:58.055Z,2.03
2022-12-24T12:05:28.502Z,1.73
2022-12-24T12:09:39.925Z,1.55
2022-12-24T12:13:44.109Z,1.80
2022-12-24T12:17:58.900Z,1.65
2022-12-24T12:22:05.086Z,1.55
2022-12-24T12:26:12.790Z,1.73
2022-12-24T12:30:17.940Z,1.83
2022-12-24T12:34:39.044Z,2.30
2022-12-24T12:38:41.134Z,2.08
2022-12-24T12:43:28.358Z,3.10
2022-12-24T12:47:42.498Z,2.13
2022-12-24T12:52:05.194Z,2.10
2022-12-24T12:56:13.974Z,2.28
2022-12-24T13:00:18.983Z,1.73
2022-12-24T13:04:26.733Z,1.60
2022-12-24T13:08:52.542Z,2.08
2022-12-24T13:13:22.325Z,1.75
2022-12-24T13:17:48.647Z,1.50
2022-12-24T13:21:54.292Z,1.58
2022-12-24T13:25:59.673Z,1.80
2022-12-24T13:30:32.796Z,2.10
2022-12-24T13:34:36.913Z,1.85
2022-12-24T13:38:57.074Z,2.60
2022-12-24T13:42:59.091Z,3.22
2022-12-24T13:47:04.768Z,3.17
2022-12-24T13:51:24.742Z,15.57
2022-12-24T13:55:26.839Z,2.58
2022-12-24T13:59:38.950Z,2.00
2022-12-24T14:03:47.461Z,2.17
2022-12-24T14:07:50.579Z,3.05
2022-12-24T14:11:58.629Z,2.28
2022-12-24T14:16:03.093Z,2.45
2022-12-24T14:20:08.889Z,2.30
2022-12-24T14:24:17.586Z,1.98
2022-12-24T14:28:28.515Z,3.88
2022-12-24T14:32:38.963Z,6.10
2022-12-24T14:36:44.341Z,3.50
2022-12-24T14:41:05.636Z,4.40
2022-12-24T14:45:26.323Z,3.25
2022-12-24T14:49:49.767Z,3.70
2022-12-24T14:54:00.302Z,2.85
2022-12-24T14:58:24.534Z,2.33
2022-12-24T15:02:46.553Z,3.47
2022-12-24T15:06:56.036Z,2.70
2022-12-24T15:11:03.075Z,2.45
2022-12-24T15:15:05.462Z,2.63
2022-12-24T15:19:20.048Z,4.32
2022-12-24T15:23:27.862Z,3.78
2022-12-24T15:27:33.353Z,3.80
2022-12-24T15:31:35.340Z,3.05
2022-12-24T15:35:52.015Z,4.15
2022-12-24T15:39:58.863Z,4.32
2022-12-24T15:44:02.795Z,3.08
2022-12-24T15:48:10.956Z,4.70
2022-12-24T15:52:15.653Z,3.08
2022-12-24T15:56:35.869Z,4.20
2022-12-24T16:00:37.865Z,3.70
2022-12-24T16:04:39.852Z,3.63
2022-12-24T16:08:43.035Z,4.97
2022-12-24T16:12:45.071Z,4.97
2022-12-24T16:16:49.938Z,5.00
2022-12-24T16:20:54.477Z,5.32
2022-12-24T16:24:56.539Z,5.47
2022-12-24T16:28:58.627Z,5.78
2022-12-24T16:33:00.632Z,4.65
2022-12-24T16:37:02.662Z,5.30
2022-12-24T16:41:04.857Z,4.40
2022-12-24T16:45:07.621Z,4.93
2022-12-24T16:49:16.852Z,4.68
2022-12-24T16:53:20.445Z,6.05
2022-12-24T16:57:23.596Z,5.07
2022-12-24T17:01:25.708Z,6.75
2022-12-24T17:05:28.401Z,6.50
2022-12-24T17:09:30.428Z,7.00
2022-12-24T17:13:32.507Z,7.18
2022-12-24T17:17:35.275Z,6.10
2022-12-24T17:21:37.357Z,6.15
2022-12-24T17:25:39.385Z,7.50
2022-12-24T17:29:41.810Z,7.00
2022-12-24T17:33:44.437Z,8.32
2022-12-24T17:37:46.439Z,6.95
2022-12-24T17:41:48.545Z,5.15
2022-12-24T17:45:50.541Z,5.28
2022-12-24T17:49:52.618Z,5.03
2022-12-24T17:53:54.593Z,5.20
2022-12-24T17:57:56.589Z,4.38
2022-12-24T18:01:59.025Z,6.65
2022-12-24T18:06:06.062Z,7.05
2022-12-24T18:10:08.885Z,6.72
2022-12-24T18:14:12.097Z,8.20
2022-12-24T18:18:14.315Z,6.40
2022-12-24T18:22:16.377Z,5.63
2022-12-24T18:26:19.747Z,5.03
2022-12-24T18:30:27.509Z,3.95
2022-12-24T18:34:30.153Z,4.88
2022-12-24T18:38:32.781Z,4.00
2022-12-24T18:42:34.881Z,3.35
2022-12-24T18:46:36.987Z,2.50
2022-12-24T18:50:40.621Z,3.03
2022-12-24T18:54:42.999Z,2.47
2022-12-24T18:58:45.488Z,2.55
2022-12-24T19:02:48.494Z,2.03
2022-12-24T19:06:53.390Z,2.70
2022-12-24T19:10:55.797Z,2.35
2022-12-24T19:14:57.885Z,2.17
2022-12-24T19:19:02.088Z,2.90
2022-12-24T19:23:04.211Z,4.38
2022-12-24T19:27:06.230Z,3.38
2022-12-24T19:31:11.626Z,2.80
2022-12-24T19:35:13.727Z,3.30
2022-12-24T19:39:16.113Z,3.42
2022-12-24T19:43:18.135Z,2.30
2022-12-24T19:47:20.106Z,1.90
2022-12-24T19:51:23.390Z,2.55
2022-12-24T19:55:25.444Z,3.03
2022-12-24T19:59:27.463Z,2.42
2022-12-24T20:03:29.563Z,2.83
2022-12-24T20:07:31.995Z,2.55
2022-12-24T20:11:35.280Z,2.90
2022-12-24T20:15:42.647Z,2.65
2022-12-24T20:19:44.655Z,2.15
2022-12-24T20:23:47.083Z,2.47
2022-12-24T20:27:49.178Z,1.65
2022-12-24T20:31:51.280Z,1.42
2022-12-24T20:35:53.375Z,1.55
2022-12-24T20:39:55.482Z,2.00
2022-12-24T20:43:59.286Z,1.60
2022-12-24T20:48:01.410Z,1.63
2022-12-24T20:52:03.514Z,2.05
2022-12-24T20:56:05.812Z,2.55
2022-12-24T21:00:08.677Z,2.92
2022-12-24T21:04:11.583Z,3.10
2022-12-24T21:08:14.082Z,2.85
2022-12-24T21:12:34.961Z,2.85
2022-12-24T21:16:37.854Z,2.83
2022-12-24T21:20:41.861Z,3.15
2022-12-24T21:24:43.913Z,2.50
2022-12-24T21:28:45.979Z,2.45
2022-12-24T21:32:48.272Z,2.53
2022-12-24T21:36:50.262Z,2.53
2022-12-24T21:40:59.181Z,1.88
2022-12-24T21:45:01.835Z,2.55
2022-12-24T21:49:22.653Z,3.10
2022-12-24T21:53:43.398Z,2.90
2022-12-24T21:57:54.343Z,2.78
2022-12-24T22:01:56.861Z,2.63
2022-12-24T22:05:59.007Z,2.90
2022-12-24T22:10:19.475Z,2.20
2022-12-24T22:14:21.513Z,2.38
2022-12-24T22:18:25.543Z,5.50
2022-12-24T22:22:27.554Z,9.27
2022-12-24T22:26:29.578Z,4.45
2022-12-24T22:30:32.343Z,3.22
2022-12-24T22:34:35.146Z,2.60
2022-12-24T22:38:37.201Z,3.83
2022-12-24T22:42:40.766Z,5.25
2022-12-24T22:46:42.849Z,4.82
2022-12-24T22:50:44.829Z,4.93
2022-12-24T22:54:46.835Z,5.90
2022-12-24T22:58:56.278Z,4.88
2022-12-24T23:02:58.357Z,4.22
2022-12-24T23:07:00.493Z,4.55
2022-12-24T23:11:09.969Z,5.18
2022-12-24T23:15:12.065Z,6.68
2022-12-24T23:19:14.189Z,6.80
2022-12-24T23:23:16.264Z,8.30
2022-12-24T23:27:18.324Z,6.97
2022-12-24T23:31:21.987Z,6.55
2022-12-24T23:35:24.205Z,6.00
2022-12-24T23:39:26.241Z,6.40
2022-12-24T23:43:29.526Z,6.70
2022-12-24T23:47:31.519Z,7.15
2022-12-24T23:51:33.552Z,6.88
2022-12-24T23:55:36.122Z,6.85
2022-12-24T23:59:38.281Z,6.50
